Index of /docker-ce/linux/ubuntu/dists/kinetic/pool/test/ppc64el/

/docker-ce/linux/ubuntu/dists/kinetic/pool/test/ppc64el/

File Name  ↓ File Size  ↓ Date  ↓ 
--
9.4 MiB09 Dec 2023 01:37:39 +0000
9.3 MiB06 Aug 2025 10:06:15 +0000
8.6 MiB06 Aug 2025 10:06:15 +0000
8.6 MiB06 Aug 2025 10:06:15 +0000
8.6 MiB06 Aug 2025 10:06:15 +0000
7.9 MiB02 Aug 2023 13:36:46 +0000
7.4 MiB02 Aug 2023 13:36:46 +0000
7.4 MiB02 Aug 2023 13:36:46 +0000
7.4 MiB02 Aug 2023 13:36:46 +0000
13.1 MiB09 Dec 2023 01:37:39 +0000
13.1 MiB31 Oct 2023 13:22:56 +0000
13.1 MiB06 Aug 2025 10:06:14 +0000
13.1 MiB06 Aug 2025 10:06:14 +0000
13.1 MiB06 Aug 2025 10:06:14 +0000
13.1 MiB06 Aug 2025 10:06:13 +0000
13.1 MiB06 Aug 2025 10:06:13 +0000
12.7 MiB06 Aug 2025 10:06:13 +0000
12.7 MiB06 Aug 2025 10:06:13 +0000
12.7 MiB06 Aug 2025 10:06:13 +0000
12.7 MiB06 Aug 2025 10:06:12 +0000
12.6 MiB06 Aug 2025 10:06:12 +0000
12.6 MiB06 Aug 2025 10:06:12 +0000
12.6 MiB06 Aug 2025 10:06:12 +0000
12.1 MiB06 Aug 2025 10:06:12 +0000
11.9 MiB06 Aug 2025 10:06:12 +0000
12.0 MiB06 Aug 2025 10:06:11 +0000
12.0 MiB06 Aug 2025 10:06:11 +0000
7.8 MiB09 Dec 2023 01:37:38 +0000
7.7 MiB31 Oct 2023 13:22:56 +0000
7.7 MiB02 Aug 2023 13:36:44 +0000
7.7 MiB02 Aug 2023 13:36:44 +0000
7.7 MiB02 Aug 2023 13:36:44 +0000
7.7 MiB02 Aug 2023 13:36:43 +0000
7.7 MiB02 Aug 2023 13:36:43 +0000
7.5 MiB02 Aug 2023 13:36:43 +0000
7.5 MiB02 Aug 2023 13:36:43 +0000
7.5 MiB02 Aug 2023 13:36:43 +0000
7.5 MiB02 Aug 2023 13:36:43 +0000
7.5 MiB02 Aug 2023 13:36:43 +0000
7.5 MiB02 Aug 2023 13:36:43 +0000
7.5 MiB02 Aug 2023 13:36:43 +0000
7.5 MiB02 Aug 2023 13:36:43 +0000
7.0 MiB02 Aug 2023 13:36:43 +0000
7.0 MiB02 Aug 2023 13:36:43 +0000
7.0 MiB02 Aug 2023 13:36:42 +0000
11.9 MiB09 Dec 2023 01:37:38 +0000
11.9 MiB31 Oct 2023 13:22:56 +0000
11.9 MiB06 Aug 2025 10:06:07 +0000
11.9 MiB06 Aug 2025 10:06:06 +0000
11.9 MiB06 Aug 2025 10:06:06 +0000
11.9 MiB06 Aug 2025 10:06:06 +0000
11.9 MiB06 Aug 2025 10:06:06 +0000
11.8 MiB06 Aug 2025 10:06:05 +0000
11.8 MiB06 Aug 2025 10:06:05 +0000
11.8 MiB06 Aug 2025 10:06:05 +0000
11.8 MiB06 Aug 2025 10:06:04 +0000
11.8 MiB06 Aug 2025 10:06:04 +0000
11.8 MiB06 Aug 2025 10:06:04 +0000
11.8 MiB06 Aug 2025 10:06:03 +0000
35.6 MiB06 Aug 2025 10:06:03 +0000
35.0 MiB06 Aug 2025 10:06:03 +0000
34.1 MiB06 Aug 2025 10:06:02 +0000
34.1 MiB06 Aug 2025 10:06:02 +0000
24.3 MiB09 Dec 2023 01:37:37 +0000
24.3 MiB06 Aug 2025 10:06:02 +0000
22.5 MiB06 Aug 2025 10:06:01 +0000
22.3 MiB06 Aug 2025 10:06:01 +0000
22.3 MiB06 Aug 2025 10:06:00 +0000
18.5 MiB06 Aug 2025 10:06:00 +0000
19.1 MiB06 Aug 2025 10:06:00 +0000
19.1 MiB06 Aug 2025 10:05:59 +0000
19.0 MiB06 Aug 2025 10:05:59 +0000
18.5 MiB06 Aug 2025 10:05:59 +0000
18.5 MiB06 Aug 2025 10:05:58 +0000
18.5 MiB06 Aug 2025 10:05:58 +0000
18.5 MiB06 Aug 2025 10:05:57 +0000
18.5 MiB06 Aug 2025 10:05:57 +0000
18.5 MiB06 Aug 2025 10:05:57 +0000